sensor_id;sensor_type;location;lat;lon;timestamp;temperature;humidity
30999;DHT22;20549;50.042;8.968;2024-03-08T00:00:27;7.00;64.80
30999;DHT22;20549;50.042;8.968;2024-03-08T00:02:53;7.00;64.00
30999;DHT22;20549;50.042;8.968;2024-03-08T00:05:20;6.90;64.80
30999;DHT22;20549;50.042;8.968;2024-03-08T00:07:46;6.90;64.90
30999;DHT22;20549;50.042;8.968;2024-03-08T00:10:13;6.80;65.00
30999;DHT22;20549;50.042;8.968;2024-03-08T00:12:40;6.80;65.10
30999;DHT22;20549;50.042;8.968;2024-03-08T00:15:06;6.80;65.20
30999;DHT22;20549;50.042;8.968;2024-03-08T00:17:33;6.80;65.30
30999;DHT22;20549;50.042;8.968;2024-03-08T00:19:59;6.70;65.30
30999;DHT22;20549;50.042;8.968;2024-03-08T00:22:26;6.70;65.40
30999;DHT22;20549;50.042;8.968;2024-03-08T00:24:52;6.60;65.40
30999;DHT22;20549;50.042;8.968;2024-03-08T00:27:19;6.60;65.40
30999;DHT22;20549;50.042;8.968;2024-03-08T00:29:46;6.60;65.60
30999;DHT22;20549;50.042;8.968;2024-03-08T00:32:12;6.60;65.60
30999;DHT22;20549;50.042;8.968;2024-03-08T00:34:39;6.50;65.60
30999;DHT22;20549;50.042;8.968;2024-03-08T00:37:05;6.50;65.80
30999;DHT22;20549;50.042;8.968;2024-03-08T00:39:32;6.50;65.90
30999;DHT22;20549;50.042;8.968;2024-03-08T00:41:59;6.40;65.90
30999;DHT22;20549;50.042;8.968;2024-03-08T00:44:25;6.40;66.00
30999;DHT22;20549;50.042;8.968;2024-03-08T00:46:52;6.40;66.00
30999;DHT22;20549;50.042;8.968;2024-03-08T00:49:18;6.40;66.10
30999;DHT22;20549;50.042;8.968;2024-03-08T00:51:45;6.30;66.10
30999;DHT22;20549;50.042;8.968;2024-03-08T00:54:12;6.30;66.20
30999;DHT22;20549;50.042;8.968;2024-03-08T00:56:38;6.30;66.30
30999;DHT22;20549;50.042;8.968;2024-03-08T00:59:06;6.30;66.40
30999;DHT22;20549;50.042;8.968;2024-03-08T01:01:31;6.20;66.40
30999;DHT22;20549;50.042;8.968;2024-03-08T01:03:58;6.20;66.40
30999;DHT22;20549;50.042;8.968;2024-03-08T01:06:24;6.20;66.40
30999;DHT22;20549;50.042;8.968;2024-03-08T01:08:51;6.20;66.50
30999;DHT22;20549;50.042;8.968;2024-03-08T01:11:18;6.10;66.50
30999;DHT22;20549;50.042;8.968;2024-03-08T01:13:44;6.00;66.50
30999;DHT22;20549;50.042;8.968;2024-03-08T01:16:11;6.00;66.60
30999;DHT22;20549;50.042;8.968;2024-03-08T01:18:37;5.90;66.70
30999;DHT22;20549;50.042;8.968;2024-03-08T01:21:04;5.90;66.70
30999;DHT22;20549;50.042;8.968;2024-03-08T01:23:31;5.80;66.80
30999;DHT22;20549;50.042;8.968;2024-03-08T01:28:27;5.80;67.00
30999;DHT22;20549;50.042;8.968;2024-03-08T01:30:54;5.70;67.30
30999;DHT22;20549;50.042;8.968;2024-03-08T01:33:26;5.60;67.20
30999;DHT22;20549;50.042;8.968;2024-03-08T01:35:50;5.60;67.40
30999;DHT22;20549;50.042;8.968;2024-03-08T01:38:16;5.60;67.50
30999;DHT22;20549;50.042;8.968;2024-03-08T01:40:43;5.50;67.60
30999;DHT22;20549;50.042;8.968;2024-03-08T01:43:22;5.50;67.70
30999;DHT22;20549;50.042;8.968;2024-03-08T01:45:48;5.50;67.80
30999;DHT22;20549;50.042;8.968;2024-03-08T01:48:15;5.50;67.90
30999;DHT22;20549;50.042;8.968;2024-03-08T01:50:41;5.50;67.10
30999;DHT22;20549;50.042;8.968;2024-03-08T01:53:08;5.50;68.00
30999;DHT22;20549;50.042;8.968;2024-03-08T01:55:34;5.50;68.00
30999;DHT22;20549;50.042;8.968;2024-03-08T01:58:01;5.50;68.10
30999;DHT22;20549;50.042;8.968;2024-03-08T02:00:27;5.50;68.30
30999;DHT22;20549;50.042;8.968;2024-03-08T02:02:54;5.40;68.20
30999;DHT22;20549;50.042;8.968;2024-03-08T02:05:21;5.40;68.30
30999;DHT22;20549;50.042;8.968;2024-03-08T02:07:47;5.40;68.30
30999;DHT22;20549;50.042;8.968;2024-03-08T02:10:14;5.40;68.30
30999;DHT22;20549;50.042;8.968;2024-03-08T02:12:40;5.40;68.30
30999;DHT22;20549;50.042;8.968;2024-03-08T02:15:07;5.30;68.50
30999;DHT22;20549;50.042;8.968;2024-03-08T02:17:34;5.30;68.70
30999;DHT22;20549;50.042;8.968;2024-03-08T02:20:00;5.30;68.60
30999;DHT22;20549;50.042;8.968;2024-03-08T02:22:28;5.30;69.50
30999;DHT22;20549;50.042;8.968;2024-03-08T02:24:53;5.20;68.70
30999;DHT22;20549;50.042;8.968;2024-03-08T02:27:23;5.20;68.80
30999;DHT22;20549;50.042;8.968;2024-03-08T02:29:49;5.20;68.80
30999;DHT22;20549;50.042;8.968;2024-03-08T02:32:16;5.20;68.90
30999;DHT22;20549;50.042;8.968;2024-03-08T02:34:42;5.20;69.10
30999;DHT22;20549;50.042;8.968;2024-03-08T02:37:09;5.10;69.10
30999;DHT22;20549;50.042;8.968;2024-03-08T02:39:36;5.10;69.10
30999;DHT22;20549;50.042;8.968;2024-03-08T02:42:02;5.00;69.20
30999;DHT22;20549;50.042;8.968;2024-03-08T02:44:29;5.00;69.30
30999;DHT22;20549;50.042;8.968;2024-03-08T02:46:55;5.00;69.40
30999;DHT22;20549;50.042;8.968;2024-03-08T02:49:22;4.90;69.40
30999;DHT22;20549;50.042;8.968;2024-03-08T02:51:48;4.90;69.50
30999;DHT22;20549;50.042;8.968;2024-03-08T02:54:15;4.80;69.60
30999;DHT22;20549;50.042;8.968;2024-03-08T02:56:42;4.80;69.70
30999;DHT22;20549;50.042;8.968;2024-03-08T02:59:08;4.70;69.90
30999;DHT22;20549;50.042;8.968;2024-03-08T03:01:35;4.70;69.90
30999;DHT22;20549;50.042;8.968;2024-03-08T03:04:01;4.60;69.90
30999;DHT22;20549;50.042;8.968;2024-03-08T03:06:28;4.50;70.00
30999;DHT22;20549;50.042;8.968;2024-03-08T03:08:55;4.50;70.10
30999;DHT22;20549;50.042;8.968;2024-03-08T03:11:21;4.50;70.30
30999;DHT22;20549;50.042;8.968;2024-03-08T03:13:48;4.40;70.40
30999;DHT22;20549;50.042;8.968;2024-03-08T03:16:20;4.40;70.70
30999;DHT22;20549;50.042;8.968;2024-03-08T03:18:47;4.40;70.70
30999;DHT22;20549;50.042;8.968;2024-03-08T03:21:13;4.30;70.70
30999;DHT22;20549;50.042;8.968;2024-03-08T03:23:40;4.30;70.90
30999;DHT22;20549;50.042;8.968;2024-03-08T03:26:06;4.30;71.00
30999;DHT22;20549;50.042;8.968;2024-03-08T03:28:33;4.30;71.30
30999;DHT22;20549;50.042;8.968;2024-03-08T03:31:00;4.20;71.00
30999;DHT22;20549;50.042;8.968;2024-03-08T03:33:26;4.20;71.20
30999;DHT22;20549;50.042;8.968;2024-03-08T03:35:53;4.20;71.30
30999;DHT22;20549;50.042;8.968;2024-03-08T03:38:19;4.10;71.40
30999;DHT22;20549;50.042;8.968;2024-03-08T03:40:46;4.10;71.40
30999;DHT22;20549;50.042;8.968;2024-03-08T03:43:12;4.00;71.20
30999;DHT22;20549;50.042;8.968;2024-03-08T03:45:39;4.00;71.50
30999;DHT22;20549;50.042;8.968;2024-03-08T03:48:06;4.00;71.80
30999;DHT22;20549;50.042;8.968;2024-03-08T03:50:35;4.00;72.00
30999;DHT22;20549;50.042;8.968;2024-03-08T03:53:02;3.90;72.00
30999;DHT22;20549;50.042;8.968;2024-03-08T03:55:28;4.00;72.00
30999;DHT22;20549;50.042;8.968;2024-03-08T03:57:55;4.00;72.20
30999;DHT22;20549;50.042;8.968;2024-03-08T04:00:21;4.00;72.50
30999;DHT22;20549;50.042;8.968;2024-03-08T04:02:48;4.10;72.70
30999;DHT22;20549;50.042;8.968;2024-03-08T04:05:15;4.10;72.60
30999;DHT22;20549;50.042;8.968;2024-03-08T04:07:41;4.20;72.60
30999;DHT22;20549;50.042;8.968;2024-03-08T04:10:08;4.20;72.60
30999;DHT22;20549;50.042;8.968;2024-03-08T04:12:34;4.20;72.60
30999;DHT22;20549;50.042;8.968;2024-03-08T04:15:01;4.20;72.30
30999;DHT22;20549;50.042;8.968;2024-03-08T04:17:27;4.20;72.40
30999;DHT22;20549;50.042;8.968;2024-03-08T04:19:54;4.30;72.60
30999;DHT22;20549;50.042;8.968;2024-03-08T04:22:21;4.30;72.60
30999;DHT22;20549;50.042;8.968;2024-03-08T04:24:47;4.30;72.60
30999;DHT22;20549;50.042;8.968;2024-03-08T04:27:14;4.30;72.70
30999;DHT22;20549;50.042;8.968;2024-03-08T04:29:40;4.30;72.60
30999;DHT22;20549;50.042;8.968;2024-03-08T04:32:07;4.30;72.70
30999;DHT22;20549;50.042;8.968;2024-03-08T04:34:34;4.30;72.80
30999;DHT22;20549;50.042;8.968;2024-03-08T04:37:03;4.30;72.80
30999;DHT22;20549;50.042;8.968;2024-03-08T04:39:29;4.20;72.70
30999;DHT22;20549;50.042;8.968;2024-03-08T04:41:59;4.20;72.80
30999;DHT22;20549;50.042;8.968;2024-03-08T04:44:25;4.20;72.80
30999;DHT22;20549;50.042;8.968;2024-03-08T04:46:52;4.10;72.80
30999;DHT22;20549;50.042;8.968;2024-03-08T04:49:18;4.10;72.80
30999;DHT22;20549;50.042;8.968;2024-03-08T04:51:45;4.10;72.90
30999;DHT22;20549;50.042;8.968;2024-03-08T04:54:12;4.10;73.00
30999;DHT22;20549;50.042;8.968;2024-03-08T04:56:38;4.10;73.20
30999;DHT22;20549;50.042;8.968;2024-03-08T04:59:05;4.10;73.20
30999;DHT22;20549;50.042;8.968;2024-03-08T05:01:31;4.10;73.40
30999;DHT22;20549;50.042;8.968;2024-03-08T05:03:59;4.10;73.50
30999;DHT22;20549;50.042;8.968;2024-03-08T05:06:26;4.10;73.20
30999;DHT22;20549;50.042;8.968;2024-03-08T05:08:53;4.10;73.20
30999;DHT22;20549;50.042;8.968;2024-03-08T05:11:19;4.10;73.50
30999;DHT22;20549;50.042;8.968;2024-03-08T05:13:46;4.10;73.70
30999;DHT22;20549;50.042;8.968;2024-03-08T05:16:12;4.10;73.80
30999;DHT22;20549;50.042;8.968;2024-03-08T05:18:39;4.10;73.70
30999;DHT22;20549;50.042;8.968;2024-03-08T05:21:05;4.20;73.80
30999;DHT22;20549;50.042;8.968;2024-03-08T05:23:32;4.20;73.70
30999;DHT22;20549;50.042;8.968;2024-03-08T05:25:59;4.10;73.70
30999;DHT22;20549;50.042;8.968;2024-03-08T05:28:25;4.10;73.90
30999;DHT22;20549;50.042;8.968;2024-03-08T05:30:52;4.10;73.90
30999;DHT22;20549;50.042;8.968;2024-03-08T05:33:18;4.10;73.90
30999;DHT22;20549;50.042;8.968;2024-03-08T05:35:45;4.10;73.90
30999;DHT22;20549;50.042;8.968;2024-03-08T05:38:12;4.00;74.80
30999;DHT22;20549;50.042;8.968;2024-03-08T05:40:38;4.00;74.00
30999;DHT22;20549;50.042;8.968;2024-03-08T05:43:05;4.00;74.00
30999;DHT22;20549;50.042;8.968;2024-03-08T05:45:31;4.00;74.00
30999;DHT22;20549;50.042;8.968;2024-03-08T05:47:58;3.90;74.10
30999;DHT22;20549;50.042;8.968;2024-03-08T05:50:25;3.90;74.20
30999;DHT22;20549;50.042;8.968;2024-03-08T05:52:51;3.90;74.40
30999;DHT22;20549;50.042;8.968;2024-03-08T05:55:18;3.90;74.40
30999;DHT22;20549;50.042;8.968;2024-03-08T05:57:44;3.90;74.20
30999;DHT22;20549;50.042;8.968;2024-03-08T06:00:11;3.90;74.40
30999;DHT22;20549;50.042;8.968;2024-03-08T06:02:38;3.90;74.60
30999;DHT22;20549;50.042;8.968;2024-03-08T06:05:04;3.90;73.90
30999;DHT22;20549;50.042;8.968;2024-03-08T06:07:31;4.00;74.80
30999;DHT22;20549;50.042;8.968;2024-03-08T06:09:57;4.00;75.00
30999;DHT22;20549;50.042;8.968;2024-03-08T06:12:24;4.10;75.30
30999;DHT22;20549;50.042;8.968;2024-03-08T06:14:50;4.10;75.40
30999;DHT22;20549;50.042;8.968;2024-03-08T06:17:17;4.20;76.40
30999;DHT22;20549;50.042;8.968;2024-03-08T06:19:44;4.40;75.90
30999;DHT22;20549;50.042;8.968;2024-03-08T06:22:10;4.50;76.20
30999;DHT22;20549;50.042;8.968;2024-03-08T06:24:37;4.70;76.40
30999;DHT22;20549;50.042;8.968;2024-03-08T06:27:03;4.90;76.50
30999;DHT22;20549;50.042;8.968;2024-03-08T06:29:30;5.20;76.60
30999;DHT22;20549;50.042;8.968;2024-03-08T06:31:57;5.50;76.60
30999;DHT22;20549;50.042;8.968;2024-03-08T06:34:23;5.70;76.50
30999;DHT22;20549;50.042;8.968;2024-03-08T06:36:50;6.00;76.10
30999;DHT22;20549;50.042;8.968;2024-03-08T06:39:16;6.20;75.90
30999;DHT22;20549;50.042;8.968;2024-03-08T06:41:43;6.40;75.90
30999;DHT22;20549;50.042;8.968;2024-03-08T06:44:10;6.70;76.00
30999;DHT22;20549;50.042;8.968;2024-03-08T06:46:36;7.00;76.10
30999;DHT22;20549;50.042;8.968;2024-03-08T06:49:03;7.40;76.10
30999;DHT22;20549;50.042;8.968;2024-03-08T06:51:29;7.80;76.10
30999;DHT22;20549;50.042;8.968;2024-03-08T06:53:56;8.20;76.00
30999;DHT22;20549;50.042;8.968;2024-03-08T06:56:22;8.60;75.70
30999;DHT22;20549;50.042;8.968;2024-03-08T06:58:49;9.10;75.30
30999;DHT22;20549;50.042;8.968;2024-03-08T07:01:16;9.50;74.80
30999;DHT22;20549;50.042;8.968;2024-03-08T07:03:42;10.00;74.30
30999;DHT22;20549;50.042;8.968;2024-03-08T07:06:09;10.40;73.70
30999;DHT22;20549;50.042;8.968;2024-03-08T07:08:35;10.90;73.30
30999;DHT22;20549;50.042;8.968;2024-03-08T07:11:02;11.30;72.40
30999;DHT22;20549;50.042;8.968;2024-03-08T07:13:29;11.70;71.70
30999;DHT22;20549;50.042;8.968;2024-03-08T07:15:55;12.10;70.90
30999;DHT22;20549;50.042;8.968;2024-03-08T07:18:22;12.50;70.40
30999;DHT22;20549;50.042;8.968;2024-03-08T07:20:48;12.80;69.60
30999;DHT22;20549;50.042;8.968;2024-03-08T07:23:15;13.20;69.30
30999;DHT22;20549;50.042;8.968;2024-03-08T07:25:42;13.60;68.50
30999;DHT22;20549;50.042;8.968;2024-03-08T07:28:08;13.90;68.60
30999;DHT22;20549;50.042;8.968;2024-03-08T07:30:35;14.30;67.30
30999;DHT22;20549;50.042;8.968;2024-03-08T07:33:10;14.60;66.50
30999;DHT22;20549;50.042;8.968;2024-03-08T07:35:40;14.90;66.00
30999;DHT22;20549;50.042;8.968;2024-03-08T07:38:06;15.20;65.60
30999;DHT22;20549;50.042;8.968;2024-03-08T07:40:36;15.50;65.10
30999;DHT22;20549;50.042;8.968;2024-03-08T07:43:02;15.80;64.60
30999;DHT22;20549;50.042;8.968;2024-03-08T07:45:29;16.10;64.20
30999;DHT22;20549;50.042;8.968;2024-03-08T07:47:55;16.40;63.50
30999;DHT22;20549;50.042;8.968;2024-03-08T07:50:22;16.70;62.90
30999;DHT22;20549;50.042;8.968;2024-03-08T07:52:48;17.00;62.40
30999;DHT22;20549;50.042;8.968;2024-03-08T07:55:15;17.30;61.70
30999;DHT22;20549;50.042;8.968;2024-03-08T07:57:42;17.60;61.20
30999;DHT22;20549;50.042;8.968;2024-03-08T08:00:08;17.80;60.70
30999;DHT22;20549;50.042;8.968;2024-03-08T08:02:35;18.00;60.30
30999;DHT22;20549;50.042;8.968;2024-03-08T08:05:01;18.30;59.30
30999;DHT22;20549;50.042;8.968;2024-03-08T08:07:28;18.50;59.10
30999;DHT22;20549;50.042;8.968;2024-03-08T08:09:54;18.60;58.20
30999;DHT22;20549;50.042;8.968;2024-03-08T08:12:21;18.90;58.30
30999;DHT22;20549;50.042;8.968;2024-03-08T08:14:48;19.00;57.80
30999;DHT22;20549;50.042;8.968;2024-03-08T08:17:14;19.10;57.20
30999;DHT22;20549;50.042;8.968;2024-03-08T08:19:41;19.20;56.70
30999;DHT22;20549;50.042;8.968;2024-03-08T08:22:07;19.30;56.50
30999;DHT22;20549;50.042;8.968;2024-03-08T08:24:34;19.40;56.50
30999;DHT22;20549;50.042;8.968;2024-03-08T08:27:01;19.50;56.60
30999;DHT22;20549;50.042;8.968;2024-03-08T08:29:27;19.60;56.50
30999;DHT22;20549;50.042;8.968;2024-03-08T08:31:54;19.90;56.40
30999;DHT22;20549;50.042;8.968;2024-03-08T08:34:20;20.10;56.00
30999;DHT22;20549;50.042;8.968;2024-03-08T08:36:47;20.30;55.80
30999;DHT22;20549;50.042;8.968;2024-03-08T08:39:14;20.50;55.40
30999;DHT22;20549;50.042;8.968;2024-03-08T08:41:40;20.70;54.50
30999;DHT22;20549;50.042;8.968;2024-03-08T08:44:07;20.90;54.00
30999;DHT22;20549;50.042;8.968;2024-03-08T08:46:33;21.00;53.50
30999;DHT22;20549;50.042;8.968;2024-03-08T08:49:00;21.00;53.30
30999;DHT22;20549;50.042;8.968;2024-03-08T08:51:27;21.10;53.30
30999;DHT22;20549;50.042;8.968;2024-03-08T08:53:53;21.10;53.00
30999;DHT22;20549;50.042;8.968;2024-03-08T08:56:20;21.20;52.30
30999;DHT22;20549;50.042;8.968;2024-03-08T08:58:46;21.20;52.20
30999;DHT22;20549;50.042;8.968;2024-03-08T09:01:13;21.20;51.80
30999;DHT22;20549;50.042;8.968;2024-03-08T09:03:40;21.10;51.30
30999;DHT22;20549;50.042;8.968;2024-03-08T09:06:08;21.00;49.70
30999;DHT22;20549;50.042;8.968;2024-03-08T09:08:38;20.90;50.40
30999;DHT22;20549;50.042;8.968;2024-03-08T09:11:05;20.80;50.40
30999;DHT22;20549;50.042;8.968;2024-03-08T09:13:31;20.60;49.30
30999;DHT22;20549;50.042;8.968;2024-03-08T09:15:58;20.50;49.90
30999;DHT22;20549;50.042;8.968;2024-03-08T09:18:24;20.40;50.30
30999;DHT22;20549;50.042;8.968;2024-03-08T09:20:51;20.30;50.00
30999;DHT22;20549;50.042;8.968;2024-03-08T09:23:21;20.30;50.70
30999;DHT22;20549;50.042;8.968;2024-03-08T09:25:47;20.30;50.60
30999;DHT22;20549;50.042;8.968;2024-03-08T09:28:14;20.30;51.00
30999;DHT22;20549;50.042;8.968;2024-03-08T09:30:40;20.30;50.30
30999;DHT22;20549;50.042;8.968;2024-03-08T09:33:07;20.30;49.90
30999;DHT22;20549;50.042;8.968;2024-03-08T09:35:34;20.30;49.80
30999;DHT22;20549;50.042;8.968;2024-03-08T09:38:00;20.20;49.30
30999;DHT22;20549;50.042;8.968;2024-03-08T09:40:27;20.10;49.00
30999;DHT22;20549;50.042;8.968;2024-03-08T09:42:53;19.90;49.70
30999;DHT22;20549;50.042;8.968;2024-03-08T09:45:20;19.80;48.70
30999;DHT22;20549;50.042;8.968;2024-03-08T09:47:47;19.60;49.30
30999;DHT22;20549;50.042;8.968;2024-03-08T09:50:13;19.50;49.20
30999;DHT22;20549;50.042;8.968;2024-03-08T09:52:40;19.30;50.10
30999;DHT22;20549;50.042;8.968;2024-03-08T09:55:06;19.20;49.50
30999;DHT22;20549;50.042;8.968;2024-03-08T09:57:34;19.10;49.60
30999;DHT22;20549;50.042;8.968;2024-03-08T10:00:01;18.90;49.40
30999;DHT22;20549;50.042;8.968;2024-03-08T10:02:27;18.60;49.30
30999;DHT22;20549;50.042;8.968;2024-03-08T10:04:54;18.30;49.40
30999;DHT22;20549;50.042;8.968;2024-03-08T10:07:21;18.10;49.40
30999;DHT22;20549;50.042;8.968;2024-03-08T10:09:47;17.80;49.40
30999;DHT22;20549;50.042;8.968;2024-03-08T10:12:14;17.50;49.50
30999;DHT22;20549;50.042;8.968;2024-03-08T10:14:40;17.30;49.10
30999;DHT22;20549;50.042;8.968;2024-03-08T10:17:07;17.00;49.60
30999;DHT22;20549;50.042;8.968;2024-03-08T10:19:33;16.70;50.00
30999;DHT22;20549;50.042;8.968;2024-03-08T10:22:00;16.50;50.30
30999;DHT22;20549;50.042;8.968;2024-03-08T10:24:27;16.30;50.50
30999;DHT22;20549;50.042;8.968;2024-03-08T10:26:55;16.10;50.60
30999;DHT22;20549;50.042;8.968;2024-03-08T10:29:20;15.90;50.70
30999;DHT22;20549;50.042;8.968;2024-03-08T10:31:46;15.80;50.90
30999;DHT22;20549;50.042;8.968;2024-03-08T10:34:13;15.60;51.00
30999;DHT22;20549;50.042;8.968;2024-03-08T10:36:41;15.50;50.80
30999;DHT22;20549;50.042;8.968;2024-03-08T10:39:16;15.30;51.00
30999;DHT22;20549;50.042;8.968;2024-03-08T10:41:39;15.10;51.00
30999;DHT22;20549;50.042;8.968;2024-03-08T10:44:18;15.00;51.20
30999;DHT22;20549;50.042;8.968;2024-03-08T10:47:02;14.80;51.30
30999;DHT22;20549;50.042;8.968;2024-03-08T10:49:38;14.60;51.50
30999;DHT22;20549;50.042;8.968;2024-03-08T10:51:58;14.40;51.60
30999;DHT22;20549;50.042;8.968;2024-03-08T10:54:25;14.20;51.80
30999;DHT22;20549;50.042;8.968;2024-03-08T10:56:51;14.10;52.00
30999;DHT22;20549;50.042;8.968;2024-03-08T10:59:18;13.90;52.10
30999;DHT22;20549;50.042;8.968;2024-03-08T11:01:44;13.80;52.30
30999;DHT22;20549;50.042;8.968;2024-03-08T11:04:11;13.70;52.40
30999;DHT22;20549;50.042;8.968;2024-03-08T11:09:36;13.50;52.80
30999;DHT22;20549;50.042;8.968;2024-03-08T11:14:49;13.40;53.10
30999;DHT22;20549;50.042;8.968;2024-03-08T11:17:25;13.30;53.30
30999;DHT22;20549;50.042;8.968;2024-03-08T11:19:45;13.20;53.50
30999;DHT22;20549;50.042;8.968;2024-03-08T11:22:13;13.20;53.80
30999;DHT22;20549;50.042;8.968;2024-03-08T11:24:38;13.20;53.90
30999;DHT22;20549;50.042;8.968;2024-03-08T11:27:04;13.20;54.50
30999;DHT22;20549;50.042;8.968;2024-03-08T11:34:43;13.20;53.80
30999;DHT22;20549;50.042;8.968;2024-03-08T11:37:12;13.20;53.70
30999;DHT22;20549;50.042;8.968;2024-03-08T11:39:39;13.20;53.80
30999;DHT22;20549;50.042;8.968;2024-03-08T11:42:04;13.20;54.00
30999;DHT22;20549;50.042;8.968;2024-03-08T11:44:31;13.20;54.00
30999;DHT22;20549;50.042;8.968;2024-03-08T11:46:58;13.20;54.10
30999;DHT22;20549;50.042;8.968;2024-03-08T11:49:24;13.20;54.10
30999;DHT22;20549;50.042;8.968;2024-03-08T11:51:54;13.20;54.10
30999;DHT22;20549;50.042;8.968;2024-03-08T11:54:20;13.20;54.20
30999;DHT22;20549;50.042;8.968;2024-03-08T11:56:47;13.20;54.20
30999;DHT22;20549;50.042;8.968;2024-03-08T11:59:13;13.20;54.20
30999;DHT22;20549;50.042;8.968;2024-03-08T12:01:40;13.20;54.30
30999;DHT22;20549;50.042;8.968;2024-03-08T12:04:11;13.30;54.30
30999;DHT22;20549;50.042;8.968;2024-03-08T12:06:37;13.20;54.20
30999;DHT22;20549;50.042;8.968;2024-03-08T12:09:03;13.20;54.20
30999;DHT22;20549;50.042;8.968;2024-03-08T12:11:30;13.20;54.20
30999;DHT22;20549;50.042;8.968;2024-03-08T12:13:56;13.20;54.30
30999;DHT22;20549;50.042;8.968;2024-03-08T12:16:23;13.20;54.30
30999;DHT22;20549;50.042;8.968;2024-03-08T12:18:50;13.20;54.30
30999;DHT22;20549;50.042;8.968;2024-03-08T12:21:16;13.20;54.30
30999;DHT22;20549;50.042;8.968;2024-03-08T12:23:51;13.20;54.30
30999;DHT22;20549;50.042;8.968;2024-03-08T12:26:18;13.20;54.40
30999;DHT22;20549;50.042;8.968;2024-03-08T12:28:44;13.20;54.40
30999;DHT22;20549;50.042;8.968;2024-03-08T12:31:14;13.20;54.50
30999;DHT22;20549;50.042;8.968;2024-03-08T12:33:53;13.20;54.50
30999;DHT22;20549;50.042;8.968;2024-03-08T12:36:19;13.20;54.50
30999;DHT22;20549;50.042;8.968;2024-03-08T12:38:46;13.20;54.50
30999;DHT22;20549;50.042;8.968;2024-03-08T12:41:17;13.20;54.60
30999;DHT22;20549;50.042;8.968;2024-03-08T12:43:41;13.20;54.60
30999;DHT22;20549;50.042;8.968;2024-03-08T12:46:08;13.20;54.80
30999;DHT22;20549;50.042;8.968;2024-03-08T12:48:37;13.30;54.90
30999;DHT22;20549;50.042;8.968;2024-03-08T12:51:04;13.30;54.80
30999;DHT22;20549;50.042;8.968;2024-03-08T12:53:30;13.40;54.80
30999;DHT22;20549;50.042;8.968;2024-03-08T12:55:57;13.40;55.00
30999;DHT22;20549;50.042;8.968;2024-03-08T12:58:23;13.40;54.60
30999;DHT22;20549;50.042;8.968;2024-03-08T13:00:50;13.40;54.60
30999;DHT22;20549;50.042;8.968;2024-03-08T13:03:16;13.50;54.60
30999;DHT22;20549;50.042;8.968;2024-03-08T13:05:43;13.50;54.50
30999;DHT22;20549;50.042;8.968;2024-03-08T13:08:10;13.50;54.40
30999;DHT22;20549;50.042;8.968;2024-03-08T13:10:36;13.50;54.40
30999;DHT22;20549;50.042;8.968;2024-03-08T13:13:03;13.50;54.40
30999;DHT22;20549;50.042;8.968;2024-03-08T13:15:29;13.50;54.40
30999;DHT22;20549;50.042;8.968;2024-03-08T13:17:56;13.60;54.50
30999;DHT22;20549;50.042;8.968;2024-03-08T13:20:26;13.60;54.40
30999;DHT22;20549;50.042;8.968;2024-03-08T13:22:52;13.60;54.40
30999;DHT22;20549;50.042;8.968;2024-03-08T13:25:19;13.60;54.30
30999;DHT22;20549;50.042;8.968;2024-03-08T13:27:45;13.60;54.30
30999;DHT22;20549;50.042;8.968;2024-03-08T13:30:12;13.60;54.30
30999;DHT22;20549;50.042;8.968;2024-03-08T13:32:39;13.60;54.40
30999;DHT22;20549;50.042;8.968;2024-03-08T13:35:05;13.60;54.40
30999;DHT22;20549;50.042;8.968;2024-03-08T13:37:32;13.60;54.30
30999;DHT22;20549;50.042;8.968;2024-03-08T13:39:58;13.60;54.40
30999;DHT22;20549;50.042;8.968;2024-03-08T13:42:25;13.70;54.50
30999;DHT22;20549;50.042;8.968;2024-03-08T13:44:52;13.70;54.50
30999;DHT22;20549;50.042;8.968;2024-03-08T13:47:18;13.70;54.30
30999;DHT22;20549;50.042;8.968;2024-03-08T13:49:45;13.70;54.40
30999;DHT22;20549;50.042;8.968;2024-03-08T13:52:11;13.70;54.40
30999;DHT22;20549;50.042;8.968;2024-03-08T13:54:38;13.70;54.30
30999;DHT22;20549;50.042;8.968;2024-03-08T13:57:04;13.70;54.30
30999;DHT22;20549;50.042;8.968;2024-03-08T13:59:31;13.70;54.20
30999;DHT22;20549;50.042;8.968;2024-03-08T14:02:00;13.70;54.30
30999;DHT22;20549;50.042;8.968;2024-03-08T14:04:24;13.80;54.30
30999;DHT22;20549;50.042;8.968;2024-03-08T14:06:51;13.80;54.40
30999;DHT22;20549;50.042;8.968;2024-03-08T14:09:17;13.80;54.40
30999;DHT22;20549;50.042;8.968;2024-03-08T14:11:44;13.80;54.40
30999;DHT22;20549;50.042;8.968;2024-03-08T14:14:11;13.80;54.30
30999;DHT22;20549;50.042;8.968;2024-03-08T14:16:40;13.80;54.30
30999;DHT22;20549;50.042;8.968;2024-03-08T14:19:07;13.80;54.30
30999;DHT22;20549;50.042;8.968;2024-03-08T14:21:35;13.80;54.20
30999;DHT22;20549;50.042;8.968;2024-03-08T14:24:03;13.90;54.20
30999;DHT22;20549;50.042;8.968;2024-03-08T14:26:30;13.90;54.20
30999;DHT22;20549;50.042;8.968;2024-03-08T14:28:56;13.90;54.10
30999;DHT22;20549;50.042;8.968;2024-03-08T14:31:23;13.90;54.00
30999;DHT22;20549;50.042;8.968;2024-03-08T14:33:52;13.90;54.00
30999;DHT22;20549;50.042;8.968;2024-03-08T14:36:19;13.90;53.90
30999;DHT22;20549;50.042;8.968;2024-03-08T14:38:48;13.90;54.00
30999;DHT22;20549;50.042;8.968;2024-03-08T14:41:15;13.90;54.00
30999;DHT22;20549;50.042;8.968;2024-03-08T14:43:44;13.90;53.90
30999;DHT22;20549;50.042;8.968;2024-03-08T14:46:14;13.90;53.90
30999;DHT22;20549;50.042;8.968;2024-03-08T14:48:55;13.90;53.80
30999;DHT22;20549;50.042;8.968;2024-03-08T14:51:22;13.90;53.80
30999;DHT22;20549;50.042;8.968;2024-03-08T14:53:48;13.90;53.90
30999;DHT22;20549;50.042;8.968;2024-03-08T14:56:15;13.90;53.80
30999;DHT22;20549;50.042;8.968;2024-03-08T14:58:42;13.90;53.80
30999;DHT22;20549;50.042;8.968;2024-03-08T15:01:08;13.90;53.80
30999;DHT22;20549;50.042;8.968;2024-03-08T15:03:35;13.90;53.70
30999;DHT22;20549;50.042;8.968;2024-03-08T15:06:01;13.90;53.70
30999;DHT22;20549;50.042;8.968;2024-03-08T15:08:28;13.90;53.60
30999;DHT22;20549;50.042;8.968;2024-03-08T15:10:54;13.90;53.60
30999;DHT22;20549;50.042;8.968;2024-03-08T15:13:21;13.90;53.60
30999;DHT22;20549;50.042;8.968;2024-03-08T15:15:48;13.90;53.40
30999;DHT22;20549;50.042;8.968;2024-03-08T15:18:14;13.90;53.40
30999;DHT22;20549;50.042;8.968;2024-03-08T15:20:41;13.90;53.40
30999;DHT22;20549;50.042;8.968;2024-03-08T15:23:07;14.00;53.30
30999;DHT22;20549;50.042;8.968;2024-03-08T15:25:34;13.90;53.30
30999;DHT22;20549;50.042;8.968;2024-03-08T15:28:00;14.00;53.50
30999;DHT22;20549;50.042;8.968;2024-03-08T15:30:27;14.00;53.50
30999;DHT22;20549;50.042;8.968;2024-03-08T15:32:54;14.00;53.50
30999;DHT22;20549;50.042;8.968;2024-03-08T15:35:20;14.00;53.40
30999;DHT22;20549;50.042;8.968;2024-03-08T15:37:47;14.00;53.30
30999;DHT22;20549;50.042;8.968;2024-03-08T15:40:13;14.00;53.30
30999;DHT22;20549;50.042;8.968;2024-03-08T15:45:18;14.00;53.20
30999;DHT22;20549;50.042;8.968;2024-03-08T15:47:44;14.00;53.30
30999;DHT22;20549;50.042;8.968;2024-03-08T15:50:11;14.00;53.20